Observations for MIDDLE WALLOP, United Kingdom (EGVP)

EGVP 201950Z 20009KT 9999 SCT008 BKN033 09/07 Q1021 GRN NOSIG   
EGVP 201912Z 20012KT 9999 BKN009 BKN018 09/07 Q1021 GRN NOSIG
EGVP 201850Z 20009KT 9999 FEW010 BKN018 09/07 Q1021 WHT BECMG BKN010 GRN
EGVP 201750Z 18009KT 9999 FEW012 BKN023 09/07 Q1020 WHT TEMPO SCT010 GRN
EGVP 201650Z 19008KT 9999 SCT018 SCT039 10/07 Q1020 WHT TEMPO FEW018 BLU
EGVP 201550Z 19011KT 9999 SCT017 SCT025 BKN039 10/07 Q1020 WHT TEMPO FEW017 BLU 
EGVP 201450Z 20011KT 9999 BKN018 SCT023 BKN033 11/07 Q1020 WHT NOSIG
EGVP 201350Z 21011KT 9999 SCT020 SCT030 BKN039 11/07 Q1020 WHT TEMPO FEW020 BLU 
EGVP 201250Z 20011KT 9999 BKN018 BKN033 11/07 Q1020 WHT TEMPO FEW018 BLU
EGVP 201150Z 20011KT 9999 SCT018 BKN025 BKN040 10/07 Q1020 WHT TEMPO FEW018 BLU 
EGVP 201050Z 18010KT 9999 BKN012 10/08 Q1019 GRN TEMPO FEW012 SCT018 WHT
EGVP 200950Z 19009KT 9999 BKN011 09/07 Q1019 GRN TEMPO BKN015 WHT   
EGVP 200850Z 20009KT 9999 BKN008 08/07 Q1019 GRN NOSIG  
EGVP 200750Z 19009KT 9999 BKN011 08/06 Q1018 GRN NOSIG  
EGVP 200650Z 18007KT 9999 BKN011 BKN042 08/06 Q1018 GRN 
EGVP 200550Z 19010KT 9999 BKN012 08/06 Q1017 GRN
EGVP 200450Z AUTO 20010KT 9999 // SCT017/// BKN041/// 08/06 Q1017   
EGVP 200350Z AUTO 19007KT 9999 // SCT012/// BKN120/// 07/06 Q1017   
EGVP 200250Z AUTO 19007KT 9999 // SCT040/// BKN120/// 07/06 Q1018   
EGVP 200150Z AUTO 19009KT 9999 // SCT009/// BKN110/// 08/06 Q1018   
EGVP 200050Z AUTO 19010KT 9999 // SCT009/// BKN120/// BKN170/// 07/06 Q1018 
EGVP 192350Z AUTO 19011KT 9999 // FEW010/// SCT029/// BKN130/// 07/06 Q1018 
EGVP 192250Z AUTO 18008KT 9999 // FEW009/// BKN036/// BKN130/// 07/06 Q1018 
EGVP 192150Z 18009KT 9999 SCT010 SCT045 BKN130 07/05 Q1018 GRN TEMPO FEW010 BLU 
EGVP 192050Z 19008KT 9999 FEW045 SCT120 BKN200 07/05 Q1018 BLU TEMPO SCT012 GRN 
EGVP 191950Z 19008KT 9999 FEW025 SCT100 OVC200 07/06 Q1018 BLU NOSIG